Time;durP1;ratioP1;P1;durP2;ratioP2;P2;SDS_P1;SDS_P2;PMS_P1;PMS_P2;Temp;Humidity;BMP_temperature;BMP_pressure;BME280_temperature;BME280_humidity;BME280_pressure;Samples;Min_cycle;Max_cycle;Signal;HPM_P1;HPM_P2
2023/05/26 00:00:12;;;;;;;17.60;3.63;;;;;;;;;;4987143;28;20458;-58
2023/05/26 00:02:39;;;;;;;19.50;3.80;;;;;;;;;;4977497;28;20399;-58
2023/05/26 00:05:07;;;;;;;24.88;4.20;;;;;;;;;;4986931;28;20046;-57
2023/05/26 00:07:33;;;;;;;15.85;3.58;;;;;;;;;;4974271;28;20031;-58
2023/05/26 00:09:59;;;;;;;18.92;3.65;;;;;;;;;;4989121;28;20027;-56
2023/05/26 00:12:24;;;;;;;20.27;4.38;;;;;;;;;;4987086;28;20027;-57
2023/05/26 00:14:50;;;;;;;19.27;4.13;;;;;;;;;;4990984;28;20038;-57
2023/05/26 00:17:18;;;;;;;19.27;4.15;;;;;;;;;;4988265;28;20041;-56
2023/05/26 00:19:44;;;;;;;22.08;4.13;;;;;;;;;;4989566;28;20121;-58
2023/05/26 00:22:12;;;;;;;26.02;4.07;;;;;;;;;;4991644;28;20125;-58
2023/05/26 00:24:38;;;;;;;20.30;4.00;;;;;;;;;;4990955;28;20045;-57
2023/05/26 00:27:03;;;;;;;19.67;4.25;;;;;;;;;;4988947;28;20041;-58
2023/05/26 00:29:30;;;;;;;19.88;4.13;;;;;;;;;;4983124;28;20463;-57
2023/05/26 00:31:56;;;;;;;21.20;3.72;;;;;;;;;;4994437;28;20038;-53
2023/05/26 00:34:21;;;;;;;23.90;3.97;;;;;;;;;;4975815;28;20141;-56
2023/05/26 00:36:47;;;;;;;23.20;4.65;;;;;;;;;;4992477;28;20070;-57
2023/05/26 00:39:12;;;;;;;17.02;4.20;;;;;;;;;;4976018;28;20460;-53
2023/05/26 00:41:38;;;;;;;20.10;4.40;;;;;;;;;;4993584;28;20037;-55
2023/05/26 00:44:03;;;;;;;22.00;4.40;;;;;;;;;;4994258;28;20042;-54
2023/05/26 00:46:30;;;;;;;24.67;4.18;;;;;;;;;;4987535;28;20038;-58
2023/05/26 00:48:55;;;;;;;19.48;3.83;;;;;;;;;;4992162;28;20027;-57
2023/05/26 00:51:22;;;;;;;23.30;4.15;;;;;;;;;;4977472;28;20043;-56
2023/05/26 00:53:48;;;;;;;27.75;4.30;;;;;;;;;;4974637;28;20042;-55
2023/05/26 00:56:15;;;;;;;23.42;4.38;;;;;;;;;;4986280;28;20041;-57
2023/05/26 00:58:41;;;;;;;17.27;4.93;;;;;;;;;;4988739;28;20407;-57
2023/05/26 01:01:07;;;;;;;21.08;4.35;;;;;;;;;;4984383;28;20034;-57
2023/05/26 01:03:33;;;;;;;16.10;3.63;;;;;;;;;;4980198;28;20064;-58
2023/05/26 01:05:58;;;;;;;22.15;4.93;;;;;;;;;;4991437;28;20026;-58
2023/05/26 01:08:24;;;;;;;23.77;4.50;;;;;;;;;;4979445;28;20046;-57
2023/05/26 01:10:52;;;;;;;20.27;4.22;;;;;;;;;;4988322;28;20061;-54
2023/05/26 01:13:31;;;;;;;19.23;4.05;;;;;;;;;;4994672;28;20411;-57
2023/05/26 01:16:08;;;;;;;22.95;4.47;;;;;;;;;;4989063;28;20089;-57
2023/05/26 01:18:47;;;;;;;25.63;4.97;;;;;;;;;;4989332;28;20379;-58
2023/05/26 01:21:12;;;;;;;24.52;4.70;;;;;;;;;;4990163;28;20042;-57
2023/05/26 01:24:11;;;;;;;21.88;4.82;;;;;;;;;;4984851;28;20058;-56
2023/05/26 01:26:48;;;;;;;21.75;4.40;;;;;;;;;;4973254;28;20097;-57
2023/05/26 01:29:20;;;;;;;20.58;4.95;;;;;;;;;;4974724;28;20464;-56
2023/05/26 01:31:46;;;;;;;21.75;4.57;;;;;;;;;;4988781;28;20030;-58
2023/05/26 01:34:11;;;;;;;24.90;3.92;;;;;;;;;;4988767;28;20042;-58
2023/05/26 01:36:37;;;;;;;21.70;4.47;;;;;;;;;;4990831;28;20026;-57
2023/05/26 01:39:03;;;;;;;24.92;4.70;;;;;;;;;;4992889;28;20033;-56
2023/05/26 01:41:50;;;;;;;24.80;4.10;;;;;;;;;;4993415;28;20038;-60
2023/05/26 01:44:30;;;;;;;25.08;4.72;;;;;;;;;;4990115;28;20041;-58
2023/05/26 01:46:56;;;;;;;20.85;4.72;;;;;;;;;;4992235;28;20498;-57
2023/05/26 01:49:26;;;;;;;22.65;4.78;;;;;;;;;;4991673;28;20049;-58
2023/05/26 01:51:57;;;;;;;24.23;4.70;;;;;;;;;;4989708;28;20050;-56
2023/05/26 01:54:25;;;;;;;21.85;4.05;;;;;;;;;;4992760;28;20038;-57
2023/05/26 01:56:56;;;;;;;23.35;4.20;;;;;;;;;;4989590;28;20030;-57
2023/05/26 01:59:23;;;;;;;20.73;4.50;;;;;;;;;;4993030;28;20137;-58
2023/05/26 02:01:49;;;;;;;24.55;5.10;;;;;;;;;;4990468;28;20069;-58
2023/05/26 02:04:15;;;;;;;18.42;4.25;;;;;;;;;;4993505;28;20458;-54
2023/05/26 02:06:40;;;;;;;28.60;4.78;;;;;;;;;;4990294;28;20035;-56
2023/05/26 02:09:06;;;;;;;22.17;4.80;;;;;;;;;;4992124;28;20034;-56
2023/05/26 02:11:32;;;;;;;21.60;4.55;;;;;;;;;;4992721;28;20075;-55
2023/05/26 02:13:58;;;;;;;25.48;4.55;;;;;;;;;;4988067;28;20026;-57
2023/05/26 02:16:24;;;;;;;21.83;4.25;;;;;;;;;;4991611;28;20195;-57
2023/05/26 02:18:49;;;;;;;24.02;4.78;;;;;;;;;;4992118;28;20065;-56
2023/05/26 02:21:15;;;;;;;27.95;5.45;;;;;;;;;;4986895;28;20118;-57
2023/05/26 02:23:43;;;;;;;24.15;5.10;;;;;;;;;;4989952;28;20045;-56
2023/05/26 02:26:09;;;;;;;24.58;5.45;;;;;;;;;;4975286;28;20474;-55
2023/05/26 02:28:34;;;;;;;31.75;4.78;;;;;;;;;;4982706;28;20130;-58
2023/05/26 02:31:00;;;;;;;17.08;4.18;;;;;;;;;;4985973;28;20078;-57
2023/05/26 02:33:26;;;;;;;21.45;4.72;;;;;;;;;;4992079;28;20402;-56
2023/05/26 02:35:52;;;;;;;21.23;4.07;;;;;;;;;;4989676;28;20469;-57
2023/05/26 02:38:17;;;;;;;19.15;4.57;;;;;;;;;;4988855;28;20034;-57
2023/05/26 02:40:42;;;;;;;25.65;4.82;;;;;;;;;;4991578;28;20050;-58
2023/05/26 02:43:08;;;;;;;24.38;4.90;;;;;;;;;;4989687;28;20076;-57
2023/05/26 02:45:33;;;;;;;25.25;4.78;;;;;;;;;;4991739;28;20129;-57
2023/05/26 02:48:00;;;;;;;22.48;4.75;;;;;;;;;;4991647;28;20108;-57
2023/05/26 02:50:25;;;;;;;24.88;4.20;;;;;;;;;;4986658;28;20045;-55
2023/05/26 02:52:50;;;;;;;20.45;4.20;;;;;;;;;;4989828;28;20463;-55
2023/05/26 02:55:16;;;;;;;26.00;4.63;;;;;;;;;;4990562;28;20033;-55
2023/05/26 02:57:41;;;;;;;24.90;4.88;;;;;;;;;;4981485;28;20387;-50
2023/05/26 03:00:10;;;;;;;19.65;3.95;;;;;;;;;;4991491;28;20034;-58
2023/05/26 03:02:36;;;;;;;21.98;4.18;;;;;;;;;;4990946;28;20462;-57
2023/05/26 03:05:01;;;;;;;24.35;5.57;;;;;;;;;;4988662;28;20062;-56
2023/05/26 03:07:27;;;;;;;29.27;5.03;;;;;;;;;;4990780;28;20391;-56
2023/05/26 03:09:52;;;;;;;21.92;4.47;;;;;;;;;;4989003;28;20118;-53
2023/05/26 03:12:18;;;;;;;25.42;4.28;;;;;;;;;;4987178;28;20042;-58
2023/05/26 03:14:43;;;;;;;19.85;4.88;;;;;;;;;;4989349;28;20038;-57
2023/05/26 03:17:08;;;;;;;24.10;5.28;;;;;;;;;;4990023;28;20430;-56
2023/05/26 03:19:34;;;;;;;27.90;5.22;;;;;;;;;;4989902;28;20061;-57
2023/05/26 03:21:59;;;;;;;30.67;4.55;;;;;;;;;;4989460;28;20030;-56
2023/05/26 03:24:24;;;;;;;22.80;4.40;;;;;;;;;;4988901;28;20035;-58
2023/05/26 03:26:51;;;;;;;24.10;4.50;;;;;;;;;;4988411;28;20527;-57
2023/05/26 03:29:17;;;;;;;27.00;4.30;;;;;;;;;;4991107;28;20030;-56
2023/05/26 03:31:42;;;;;;;30.80;4.45;;;;;;;;;;4990244;28;20080;-58
2023/05/26 03:34:08;;;;;;;30.60;5.07;;;;;;;;;;4983484;28;20118;-58
2023/05/26 03:36:36;;;;;;;24.10;4.20;;;;;;;;;;4981833;28;20402;-57
2023/05/26 03:39:03;;;;;;;22.00;4.82;;;;;;;;;;4985336;28;20542;-58
2023/05/26 03:41:29;;;;;;;19.05;4.50;;;;;;;;;;4990902;28;20061;-54
2023/05/26 03:43:54;;;;;;;25.70;5.43;;;;;;;;;;4984739;28;20039;-55
2023/05/26 03:46:20;;;;;;;23.35;5.63;;;;;;;;;;4972186;28;20031;-56
2023/05/26 03:48:45;;;;;;;28.95;5.43;;;;;;;;;;4982097;28;20398;-56
2023/05/26 03:51:11;;;;;;;21.40;4.60;;;;;;;;;;4984635;28;20034;-58
2023/05/26 03:53:36;;;;;;;28.25;5.20;;;;;;;;;;4990787;28;20089;-56
2023/05/26 03:56:03;;;;;;;34.90;5.38;;;;;;;;;;4988441;28;20042;-57
2023/05/26 03:58:28;;;;;;;27.65;5.63;;;;;;;;;;4993917;28;20034;-57
2023/05/26 04:00:55;;;;;;;24.50;5.00;;;;;;;;;;4992743;28;20112;-58
2023/05/26 04:03:21;;;;;;;25.27;5.05;;;;;;;;;;4989131;28;20035;-59
2023/05/26 04:05:47;;;;;;;22.17;4.75;;;;;;;;;;4992536;28;20031;-59
2023/05/26 04:08:13;;;;;;;25.95;5.88;;;;;;;;;;4993924;28;20106;-58
2023/05/26 04:10:38;;;;;;;24.15;5.90;;;;;;;;;;4995647;28;20032;-57
2023/05/26 04:13:03;;;;;;;28.15;5.38;;;;;;;;;;4989525;28;20026;-58
2023/05/26 04:15:29;;;;;;;24.65;5.72;;;;;;;;;;4992845;28;20034;-57
2023/05/26 04:17:54;;;;;;;24.95;5.18;;;;;;;;;;4992172;28;20034;-57
2023/05/26 04:20:20;;;;;;;23.95;4.95;;;;;;;;;;4990726;28;20030;-57
2023/05/26 04:22:45;;;;;;;22.10;5.03;;;;;;;;;;4988853;28;20113;-60
2023/05/26 04:25:11;;;;;;;35.63;4.90;;;;;;;;;;4995483;28;20038;-60
2023/05/26 04:27:37;;;;;;;30.10;5.20;;;;;;;;;;4995448;28;20030;-52
2023/05/26 04:30:04;;;;;;;32.00;5.10;;;;;;;;;;4994291;28;20606;-57
2023/05/26 04:32:29;;;;;;;28.95;5.25;;;;;;;;;;4993980;28;20038;-59
2023/05/26 04:34:58;;;;;;;24.58;4.80;;;;;;;;;;4994520;28;20037;-56
2023/05/26 04:37:23;;;;;;;34.88;5.47;;;;;;;;;;4994886;28;20080;-57
2023/05/26 04:39:48;;;;;;;30.23;5.25;;;;;;;;;;4994010;28;20129;-59
2023/05/26 04:42:15;;;;;;;24.75;5.25;;;;;;;;;;4994992;28;20023;-59
2023/05/26 04:44:43;;;;;;;31.63;4.88;;;;;;;;;;4991936;28;20035;-56
2023/05/26 04:47:08;;;;;;;21.75;4.78;;;;;;;;;;4994476;28;20035;-56
2023/05/26 04:49:38;;;;;;;24.20;4.72;;;;;;;;;;4993615;28;20034;-58
2023/05/26 04:52:04;;;;;;;20.88;4.53;;;;;;;;;;4994023;28;20117;-58
2023/05/26 04:54:30;;;;;;;26.08;5.55;;;;;;;;;;4993791;28;20030;-57
2023/05/26 04:56:55;;;;;;;28.38;5.47;;;;;;;;;;4989612;28;20038;-59
2023/05/26 04:59:24;;;;;;;29.98;6.53;;;;;;;;;;4994935;28;20378;-56
2023/05/26 05:01:50;;;;;;;28.48;5.05;;;;;;;;;;4992745;28;20557;-58
2023/05/26 05:04:16;;;;;;;24.15;5.15;;;;;;;;;;4994699;28;20467;-57
2023/05/26 05:06:41;;;;;;;25.30;5.75;;;;;;;;;;4991241;28;20045;-58
2023/05/26 05:09:07;;;;;;;26.25;5.00;;;;;;;;;;4991222;28;20038;-56
2023/05/26 05:11:33;;;;;;;30.25;5.40;;;;;;;;;;4994574;28;20038;-58
2023/05/26 05:13:58;;;;;;;29.10;5.43;;;;;;;;;;4993778;28;20042;-54
2023/05/26 05:16:24;;;;;;;23.10;5.03;;;;;;;;;;4992677;28;20046;-58
2023/05/26 05:18:49;;;;;;;24.73;5.20;;;;;;;;;;4985608;28;20042;-58
2023/05/26 05:21:16;;;;;;;31.23;5.65;;;;;;;;;;4990557;28;20080;-59
2023/05/26 05:23:41;;;;;;;26.40;5.43;;;;;;;;;;4992361;28;20361;-58
2023/05/26 05:26:06;;;;;;;25.45;5.32;;;;;;;;;;4990202;28;20105;-61
2023/05/26 05:28:32;;;;;;;33.13;6.63;;;;;;;;;;4983651;28;20066;-57
2023/05/26 05:30:57;;;;;;;22.38;4.90;;;;;;;;;;4977086;28;20038;-54
2023/05/26 05:33:23;;;;;;;28.88;5.68;;;;;;;;;;4991610;28;20109;-61
2023/05/26 05:35:48;;;;;;;20.33;4.65;;;;;;;;;;4993413;28;20124;-61
2023/05/26 05:38:13;;;;;;;32.78;5.72;;;;;;;;;;4993472;28;20030;-62
2023/05/26 05:40:39;;;;;;;25.05;4.90;;;;;;;;;;4993814;28;20057;-61
2023/05/26 05:43:04;;;;;;;25.05;5.07;;;;;;;;;;4992624;28;20125;-61
2023/05/26 05:45:30;;;;;;;24.77;4.93;;;;;;;;;;4979910;28;20026;-61
2023/05/26 05:47:55;;;;;;;24.90;5.45;;;;;;;;;;4981014;28;20117;-63
2023/05/26 05:50:21;;;;;;;20.05;5.38;;;;;;;;;;4994092;28;20403;-61
2023/05/26 05:52:47;;;;;;;26.10;5.05;;;;;;;;;;4993046;28;20066;-62
2023/05/26 05:55:12;;;;;;;19.77;5.00;;;;;;;;;;4992104;28;20113;-62
2023/05/26 05:57:37;;;;;;;23.23;4.93;;;;;;;;;;4993086;28;20042;-60
2023/05/26 06:00:04;;;;;;;22.20;4.82;;;;;;;;;;4992762;28;20031;-61
2023/05/26 06:02:30;;;;;;;24.05;5.35;;;;;;;;;;4982915;28;20038;-61
2023/05/26 06:04:55;;;;;;;25.80;5.13;;;;;;;;;;4991176;28;20117;-62
2023/05/26 06:07:21;;;;;;;20.55;5.07;;;;;;;;;;4992856;28;20042;-61
2023/05/26 06:09:46;;;;;;;18.10;5.07;;;;;;;;;;4988665;28;20038;-61
2023/05/26 06:12:11;;;;;;;22.10;5.32;;;;;;;;;;4990379;28;20034;-60
2023/05/26 06:14:38;;;;;;;20.10;4.78;;;;;;;;;;4992068;28;20034;-66
2023/05/26 06:17:03;;;;;;;19.75;4.63;;;;;;;;;;4977432;28;20034;-57
2023/05/26 06:19:29;;;;;;;16.45;4.65;;;;;;;;;;4977609;28;20041;-59
2023/05/26 06:21:54;;;;;;;26.73;4.90;;;;;;;;;;4990161;28;20058;-60
2023/05/26 06:24:20;;;;;;;29.77;4.88;;;;;;;;;;4990443;28;20498;-60
2023/05/26 06:26:45;;;;;;;23.88;5.22;;;;;;;;;;4988624;28;20446;-58
2023/05/26 06:29:11;;;;;;;22.42;5.30;;;;;;;;;;4978607;28;20030;-57
2023/05/26 06:31:36;;;;;;;18.65;4.55;;;;;;;;;;4991255;28;20108;-57
2023/05/26 06:34:01;;;;;;;22.75;5.32;;;;;;;;;;4972612;28;20035;-57
2023/05/26 06:36:27;;;;;;;20.77;4.70;;;;;;;;;;4973492;28;20030;-58
2023/05/26 06:38:52;;;;;;;23.77;4.85;;;;;;;;;;4975412;28;20026;-60
2023/05/26 06:41:18;;;;;;;29.75;5.38;;;;;;;;;;4992966;28;20046;-59
2023/05/26 06:43:43;;;;;;;22.05;5.22;;;;;;;;;;4986452;28;20468;-58
2023/05/26 06:46:08;;;;;;;25.77;6.43;;;;;;;;;;4971308;28;20646;-58
2023/05/26 06:48:34;;;;;;;20.38;5.18;;;;;;;;;;4982331;28;20475;-57
2023/05/26 06:50:59;;;;;;;22.17;4.72;;;;;;;;;;4989984;28;20132;-58
2023/05/26 06:53:25;;;;;;;22.17;5.72;;;;;;;;;;4991843;28;20042;-58
2023/05/26 06:55:50;;;;;;;23.70;4.72;;;;;;;;;;4992126;28;20037;-59
2023/05/26 06:58:15;;;;;;;22.88;5.20;;;;;;;;;;4991687;28;20034;-57
2023/05/26 07:00:55;;;;;;;21.45;5.28;;;;;;;;;;4992081;28;20034;-57
2023/05/26 07:03:21;;;;;;;22.67;4.82;;;;;;;;;;4981681;28;20042;-57
2023/05/26 07:05:46;;;;;;;25.65;5.45;;;;;;;;;;4972948;28;20035;-57
2023/05/26 07:08:11;;;;;;;26.42;5.45;;;;;;;;;;4986643;28;20038;-58
2023/05/26 07:10:37;;;;;;;23.30;5.30;;;;;;;;;;4979218;28;20463;-58
2023/05/26 07:13:02;;;;;;;28.05;5.60;;;;;;;;;;4981371;28;20046;-59
2023/05/26 07:15:28;;;;;;;22.95;5.65;;;;;;;;;;4989996;28;20061;-59
2023/05/26 07:17:53;;;;;;;22.23;5.30;;;;;;;;;;4981841;28;20452;-58
2023/05/26 07:20:19;;;;;;;25.40;5.18;;;;;;;;;;4979202;28;20034;-59
2023/05/26 07:22:44;;;;;;;23.10;4.70;;;;;;;;;;4983633;28;20042;-59
2023/05/26 07:25:10;;;;;;;25.98;5.65;;;;;;;;;;4971993;28;20659;-59
2023/05/26 07:27:35;;;;;;;22.38;4.28;;;;;;;;;;4973175;28;20042;-58
2023/05/26 07:30:00;;;;;;;17.77;4.38;;;;;;;;;;4985283;28;20471;-58
2023/05/26 07:32:26;;;;;;;25.02;4.88;;;;;;;;;;4994396;28;20030;-57
2023/05/26 07:34:51;;;;;;;20.77;4.30;;;;;;;;;;4991009;28;20034;-60
2023/05/26 07:37:16;;;;;;;26.45;4.68;;;;;;;;;;4989702;28;20032;-59
2023/05/26 07:39:42;;;;;;;25.98;5.03;;;;;;;;;;4984502;28;20065;-59
2023/05/26 07:42:07;;;;;;;22.92;4.40;;;;;;;;;;4987083;28;20389;-59
2023/05/26 07:44:33;;;;;;;25.25;5.00;;;;;;;;;;4993377;28;20042;-55
2023/05/26 07:46:58;;;;;;;26.15;5.30;;;;;;;;;;4979870;28;20033;-58
2023/05/26 07:49:23;;;;;;;23.25;5.30;;;;;;;;;;4976384;28;20042;-58
2023/05/26 07:51:49;;;;;;;16.05;4.47;;;;;;;;;;4976233;28;20496;-59
2023/05/26 07:54:14;;;;;;;23.25;4.55;;;;;;;;;;4974825;28;20031;-58
2023/05/26 07:56:40;;;;;;;20.65;4.90;;;;;;;;;;4976493;28;20035;-59
2023/05/26 07:59:06;;;;;;;20.65;4.25;;;;;;;;;;4991920;28;20475;-59
2023/05/26 08:01:32;;;;;;;18.75;4.40;;;;;;;;;;4995055;28;20034;-59
2023/05/26 08:03:58;;;;;;;17.52;4.25;;;;;;;;;;4994393;28;20037;-60
2023/05/26 08:06:23;;;;;;;24.27;4.80;;;;;;;;;;4993554;28;20026;-59
2023/05/26 08:08:48;;;;;;;23.33;4.68;;;;;;;;;;4981439;28;20039;-60
2023/05/26 08:11:14;;;;;;;24.85;4.40;;;;;;;;;;4975322;28;20030;-58
2023/05/26 08:13:39;;;;;;;22.15;4.95;;;;;;;;;;4981850;28;20041;-60
2023/05/26 08:16:06;;;;;;;18.92;4.47;;;;;;;;;;4994573;28;20034;-59
2023/05/26 08:18:31;;;;;;;21.92;4.53;;;;;;;;;;4994351;28;20053;-60
2023/05/26 08:20:56;;;;;;;21.52;4.65;;;;;;;;;;4991588;28;20482;-60
2023/05/26 08:23:22;;;;;;;22.48;5.53;;;;;;;;;;4995019;28;20042;-60
2023/05/26 08:25:47;;;;;;;20.60;4.82;;;;;;;;;;4995306;28;20463;-60
2023/05/26 08:28:13;;;;;;;18.17;4.22;;;;;;;;;;4987509;28;20286;-58
2023/05/26 08:30:40;;;;;;;20.75;4.90;;;;;;;;;;4993880;28;20493;-60
2023/05/26 08:33:05;;;;;;;22.02;5.20;;;;;;;;;;4990828;28;20037;-59
2023/05/26 08:35:31;;;;;;;14.85;4.30;;;;;;;;;;4983514;28;20043;-57
2023/05/26 08:37:56;;;;;;;20.80;5.25;;;;;;;;;;4980029;28;20037;-59
2023/05/26 08:40:22;;;;;;;23.20;5.03;;;;;;;;;;4993108;28;20082;-58
2023/05/26 08:42:51;;;;;;;23.73;4.38;;;;;;;;;;4988242;28;20027;-59
2023/05/26 08:45:17;;;;;;;23.05;5.05;;;;;;;;;;4974988;28;20053;-58
2023/05/26 08:47:44;;;;;;;20.30;4.63;;;;;;;;;;4975493;28;20039;-59
2023/05/26 08:50:11;;;;;;;19.85;4.93;;;;;;;;;;4980085;28;20537;-59
2023/05/26 08:52:39;;;;;;;22.88;5.30;;;;;;;;;;4993962;28;20030;-58
2023/05/26 08:55:08;;;;;;;23.85;4.78;;;;;;;;;;4992338;28;20030;-59
2023/05/26 08:57:34;;;;;;;17.52;4.93;;;;;;;;;;4983200;28;20038;-57
2023/05/26 08:59:59;;;;;;;20.40;4.68;;;;;;;;;;4974201;28;20420;-60
2023/05/26 09:02:26;;;;;;;27.42;5.10;;;;;;;;;;4991677;28;20093;-55
2023/05/26 09:04:52;;;;;;;19.83;5.10;;;;;;;;;;4974999;28;20046;-59
2023/05/26 09:07:18;;;;;;;21.85;5.18;;;;;;;;;;4974680;28;20039;-58
2023/05/26 09:09:45;;;;;;;23.95;5.03;;;;;;;;;;4991052;28;20053;-59
2023/05/26 09:12:12;;;;;;;19.10;4.93;;;;;;;;;;4992373;28;20031;-58
2023/05/26 09:14:38;;;;;;;20.63;5.05;;;;;;;;;;4994102;28;20042;-59
2023/05/26 09:17:04;;;;;;;22.48;4.97;;;;;;;;;;4991848;28;20586;-59
2023/05/26 09:19:32;;;;;;;22.02;5.13;;;;;;;;;;4978256;28;20106;-59
2023/05/26 09:22:05;;;;;;;16.65;4.82;;;;;;;;;;4974332;28;20046;-60
2023/05/26 09:24:42;;;;;;;17.20;4.88;;;;;;;;;;4974866;28;20062;-58
2023/05/26 09:27:19;;;;;;;19.30;5.53;;;;;;;;;;4993163;28;20031;-59
2023/05/26 09:29:52;;;;;;;16.85;4.68;;;;;;;;;;4988603;28;20038;-60
2023/05/26 09:32:19;;;;;;;20.05;4.53;;;;;;;;;;4993393;28;20037;-60
2023/05/26 09:34:44;;;;;;;23.55;4.93;;;;;;;;;;4989584;28;20471;-59
2023/05/26 09:37:10;;;;;;;22.75;4.82;;;;;;;;;;4993096;28;20030;-60
2023/05/26 09:39:35;;;;;;;21.65;5.25;;;;;;;;;;4993449;28;20102;-59
2023/05/26 09:42:06;;;;;;;20.95;5.60;;;;;;;;;;4990204;28;20058;-56
2023/05/26 09:44:33;;;;;;;23.83;5.65;;;;;;;;;;4991471;28;20042;-58
2023/05/26 09:46:58;;;;;;;21.48;5.45;;;;;;;;;;4992793;28;20034;-59
2023/05/26 09:49:23;;;;;;;37.67;6.40;;;;;;;;;;4987928;28;20030;-61
2023/05/26 09:51:50;;;;;;;15.23;4.57;;;;;;;;;;4993853;28;20137;-60
2023/05/26 09:54:16;;;;;;;26.10;5.80;;;;;;;;;;4982408;28;20031;-60
2023/05/26 09:56:53;;;;;;;22.23;5.65;;;;;;;;;;4979567;28;20023;-60
2023/05/26 09:59:26;;;;;;;22.48;5.20;;;;;;;;;;4982744;28;20511;-59
2023/05/26 10:01:53;;;;;;;21.58;5.57;;;;;;;;;;4993607;28;20042;-57
2023/05/26 10:04:19;;;;;;;16.80;4.72;;;;;;;;;;4980556;28;20114;-60
2023/05/26 10:06:48;;;;;;;19.75;4.97;;;;;;;;;;4980602;28;20491;-60
2023/05/26 10:09:14;;;;;;;20.52;5.00;;;;;;;;;;4991475;28;20053;-60
2023/05/26 10:11:43;;;;;;;22.95;4.70;;;;;;;;;;4993099;28;20023;-60
2023/05/26 10:14:09;;;;;;;20.50;4.85;;;;;;;;;;4989829;28;20056;-61
2023/05/26 10:16:35;;;;;;;19.17;5.28;;;;;;;;;;4993058;28;20030;-60
2023/05/26 10:19:01;;;;;;;29.77;5.72;;;;;;;;;;4987999;28;20033;-60
2023/05/26 10:21:32;;;;;;;20.10;5.68;;;;;;;;;;4991758;28;20416;-60
2023/05/26 10:24:25;;;;;;;19.38;4.93;;;;;;;;;;4990206;28;20046;-60
2023/05/26 10:27:23;;;;;;;17.70;4.65;;;;;;;;;;4975526;28;20129;-60
2023/05/26 10:29:57;;;;;;;22.65;5.43;;;;;;;;;;4982849;28;20101;-60
2023/05/26 10:32:45;;;;;;;22.77;5.40;;;;;;;;;;4991201;28;20462;-60
2023/05/26 10:35:42;;;;;;;20.08;4.50;;;;;;;;;;4982529;28;20038;-59
2023/05/26 10:38:08;;;;;;;18.85;4.90;;;;;;;;;;4989058;28;20065;-58
2023/05/26 10:40:33;;;;;;;22.92;5.03;;;;;;;;;;4989573;28;20084;-57
2023/05/26 10:43:12;;;;;;;24.40;4.85;;;;;;;;;;4989555;28;20066;-59
2023/05/26 10:45:51;;;;;;;17.80;4.95;;;;;;;;;;4972100;28;20391;-58
2023/05/26 10:48:17;;;;;;;20.52;5.00;;;;;;;;;;4972254;28;20038;-60
2023/05/26 10:50:55;;;;;;;18.38;4.43;;;;;;;;;;4980939;28;20038;-60
2023/05/26 10:53:22;;;;;;;16.83;4.72;;;;;;;;;;4991672;28;20467;-60
2023/05/26 10:56:02;;;;;;;19.45;4.50;;;;;;;;;;4992697;28;20031;-60
2023/05/26 10:58:31;;;;;;;18.83;5.03;;;;;;;;;;4987966;28;20428;-60
2023/05/26 11:01:12;;;;;;;19.50;4.68;;;;;;;;;;4992089;28;20042;-59
2023/05/26 11:03:45;;;;;;;17.67;4.57;;;;;;;;;;4989498;28;20491;-60
2023/05/26 11:06:13;;;;;;;16.85;4.65;;;;;;;;;;4986312;28;20034;-60
2023/05/26 11:08:49;;;;;;;19.80;4.72;;;;;;;;;;4977135;28;20543;-60
2023/05/26 11:11:29;;;;;;;16.25;4.68;;;;;;;;;;4971835;28;20030;-60
2023/05/26 11:14:12;;;;;;;18.98;4.85;;;;;;;;;;4973093;28;20518;-60
2023/05/26 11:16:42;;;;;;;15.35;4.30;;;;;;;;;;4972875;28;20125;-60
2023/05/26 11:19:08;;;;;;;17.50;4.63;;;;;;;;;;4971834;28;20048;-60
2023/05/26 11:21:35;;;;;;;17.52;4.78;;;;;;;;;;4982880;28;20035;-60
2023/05/26 11:24:05;;;;;;;19.52;5.07;;;;;;;;;;4988390;28;20036;-60
2023/05/26 11:26:32;;;;;;;17.02;5.03;;;;;;;;;;4992212;28;20109;-61
2023/05/26 11:29:00;;;;;;;18.75;4.60;;;;;;;;;;4991762;28;20042;-59
2023/05/26 11:31:26;;;;;;;12.18;3.90;;;;;;;;;;4991739;28;20105;-60
2023/05/26 11:33:52;;;;;;;14.88;4.60;;;;;;;;;;4992049;28;20448;-60
2023/05/26 11:36:19;;;;;;;16.63;5.53;;;;;;;;;;4987184;28;20058;-59
2023/05/26 11:38:50;;;;;;;12.82;4.60;;;;;;;;;;4991247;28;20026;-59
2023/05/26 11:41:15;;;;;;;14.07;4.30;;;;;;;;;;4985406;28;20055;-59
2023/05/26 11:43:44;;;;;;;16.10;4.75;;;;;;;;;;4984783;28;20042;-59
2023/05/26 11:46:11;;;;;;;11.95;4.30;;;;;;;;;;4991177;28;20031;-60
2023/05/26 11:48:41;;;;;;;16.27;4.65;;;;;;;;;;4991870;28;20165;-60
2023/05/26 11:51:17;;;;;;;17.58;4.78;;;;;;;;;;4991319;28;20038;-59
2023/05/26 11:53:45;;;;;;;12.40;4.32;;;;;;;;;;4991116;28;20039;-60
2023/05/26 11:56:15;;;;;;;14.30;4.18;;;;;;;;;;4990899;28;20042;-60
2023/05/26 11:58:44;;;;;;;13.90;4.40;;;;;;;;;;4990880;28;20031;-60
2023/05/26 12:01:10;;;;;;;12.47;4.43;;;;;;;;;;4988000;28;20030;-60
2023/05/26 12:03:38;;;;;;;14.23;3.95;;;;;;;;;;4990093;28;20279;-60
2023/05/26 12:06:05;;;;;;;14.75;4.63;;;;;;;;;;4981404;28;20045;-60
2023/05/26 12:08:45;;;;;;;15.55;4.45;;;;;;;;;;4990752;28;20526;-60
2023/05/26 12:11:20;;;;;;;10.52;4.00;;;;;;;;;;4971691;28;20034;-60
2023/05/26 12:13:47;;;;;;;14.27;4.55;;;;;;;;;;4972447;28;20042;-60
2023/05/26 12:16:23;;;;;;;14.40;4.45;;;;;;;;;;4971426;28;20476;-59
2023/05/26 12:18:53;;;;;;;13.65;4.28;;;;;;;;;;4975099;28;20031;-60
2023/05/26 12:21:19;;;;;;;12.32;4.05;;;;;;;;;;4988050;28;20031;-60
2023/05/26 12:23:46;;;;;;;13.45;3.88;;;;;;;;;;4992722;28;20062;-60
2023/05/26 12:26:22;;;;;;;12.43;3.80;;;;;;;;;;4979692;28;20451;-59
2023/05/26 12:29:06;;;;;;;14.15;4.28;;;;;;;;;;4992970;28;20444;-60
2023/05/26 12:31:49;;;;;;;11.73;4.30;;;;;;;;;;4976025;28;20031;-60
2023/05/26 12:34:23;;;;;;;14.40;4.35;;;;;;;;;;4981741;28;20089;-60
2023/05/26 12:36:50;;;;;;;14.73;3.90;;;;;;;;;;4975327;28;20062;-60
2023/05/26 12:39:16;;;;;;;12.63;4.00;;;;;;;;;;4974371;28;20034;-59
2023/05/26 12:41:45;;;;;;;13.57;4.00;;;;;;;;;;4975832;28;20037;-60
2023/05/26 12:44:11;;;;;;;14.13;4.40;;;;;;;;;;4980833;28;20022;-60
2023/05/26 12:46:39;;;;;;;13.57;3.95;;;;;;;;;;4994598;28;20061;-60
2023/05/26 12:49:05;;;;;;;14.43;4.30;;;;;;;;;;4991734;28;20038;-61
2023/05/26 12:51:31;;;;;;;13.98;4.57;;;;;;;;;;4991986;28;20057;-60
2023/05/26 12:53:56;;;;;;;13.25;4.32;;;;;;;;;;4993675;28;20160;-61
2023/05/26 12:56:22;;;;;;;14.40;4.53;;;;;;;;;;4974167;28;20194;-60
2023/05/26 12:58:48;;;;;;;11.18;4.32;;;;;;;;;;4988465;28;20102;-60
2023/05/26 13:01:14;;;;;;;12.48;4.68;;;;;;;;;;4991953;28;20038;-60
2023/05/26 13:03:40;;;;;;;12.13;4.25;;;;;;;;;;4993796;28;20026;-60
2023/05/26 13:06:07;;;;;;;12.05;3.83;;;;;;;;;;4988656;28;20514;-60
2023/05/26 13:08:33;;;;;;;14.48;4.35;;;;;;;;;;4993691;28;20042;-61
2023/05/26 13:10:59;;;;;;;12.60;4.22;;;;;;;;;;4978943;28;20106;-60
2023/05/26 13:13:25;;;;;;;12.77;4.10;;;;;;;;;;4988995;28;20026;-60
2023/05/26 13:15:50;;;;;;;14.90;4.50;;;;;;;;;;4981960;28;20475;-60
2023/05/26 13:18:16;;;;;;;12.02;4.32;;;;;;;;;;4990843;28;20117;-61
2023/05/26 13:20:41;;;;;;;15.23;4.45;;;;;;;;;;4992610;28;20035;-56
2023/05/26 13:23:07;;;;;;;14.65;4.35;;;;;;;;;;4987449;28;20061;-58
2023/05/26 13:25:32;;;;;;;13.70;4.45;;;;;;;;;;4994208;28;20106;-58
2023/05/26 13:27:58;;;;;;;12.48;4.30;;;;;;;;;;4994117;28;20030;-54
2023/05/26 13:30:25;;;;;;;11.18;3.67;;;;;;;;;;4992588;28;20101;-57
2023/05/26 13:32:51;;;;;;;13.43;4.20;;;;;;;;;;4991467;28;20037;-55
2023/05/26 13:35:17;;;;;;;11.88;4.07;;;;;;;;;;4991974;28;20031;-56
2023/05/26 13:37:43;;;;;;;15.35;4.20;;;;;;;;;;4993685;28;20026;-53
2023/05/26 13:40:09;;;;;;;10.73;4.25;;;;;;;;;;4992977;28;20494;-57
2023/05/26 13:42:35;;;;;;;15.13;4.93;;;;;;;;;;4989386;28;20095;-55
2023/05/26 13:45:02;;;;;;;11.80;4.07;;;;;;;;;;4977078;28;20031;-55
2023/05/26 13:47:32;;;;;;;11.57;4.13;;;;;;;;;;4974056;28;20042;-51
2023/05/26 13:49:57;;;;;;;11.38;3.75;;;;;;;;;;4974494;28;20038;-54
2023/05/26 13:52:23;;;;;;;12.73;4.20;;;;;;;;;;4981090;28;20034;-57
2023/05/26 13:54:48;;;;;;;12.30;4.20;;;;;;;;;;4993736;28;20088;-52
2023/05/26 13:57:13;;;;;;;14.02;3.90;;;;;;;;;;4977777;28;20042;-55
2023/05/26 13:59:39;;;;;;;16.40;3.92;;;;;;;;;;4993764;28;20073;-56
2023/05/26 14:02:05;;;;;;;9.85;3.88;;;;;;;;;;4985478;28;20094;-59
2023/05/26 14:04:31;;;;;;;11.98;4.07;;;;;;;;;;4991718;28;20109;-53
2023/05/26 14:06:56;;;;;;;14.40;4.10;;;;;;;;;;4993331;28;20121;-56
2023/05/26 14:09:21;;;;;;;13.40;4.65;;;;;;;;;;4992824;28;20402;-57
2023/05/26 14:11:47;;;;;;;13.63;4.20;;;;;;;;;;4991881;28;20094;-58
2023/05/26 14:14:12;;;;;;;10.13;3.72;;;;;;;;;;4989373;28;20038;-56
2023/05/26 14:16:38;;;;;;;11.75;3.90;;;;;;;;;;4991515;28;20030;-55
2023/05/26 14:19:03;;;;;;;11.05;3.80;;;;;;;;;;4993383;28;20036;-55
2023/05/26 14:21:29;;;;;;;13.68;3.90;;;;;;;;;;4986962;28;20113;-55
2023/05/26 14:23:54;;;;;;;13.05;3.80;;;;;;;;;;4973305;28;20464;-56
2023/05/26 14:26:20;;;;;;;11.48;3.78;;;;;;;;;;4991536;28;20399;-57
2023/05/26 14:28:46;;;;;;;13.25;4.10;;;;;;;;;;4991551;28;20372;-53
2023/05/26 14:31:13;;;;;;;12.68;3.97;;;;;;;;;;4992225;28;20357;-55